Haileybury, Canada
Current Conditions -  °F | °C
As of 1:00 AM on Saturday 25 Oct 2014 (Local Time) from CYXR Reporting Station
Scattered Clouds Scattered Clouds  
Wind Chill: 39°   Ceiling: Unl
Heat Index: 43°   Visibility: 9mi
Dew Point: 41°   Wind: 7mph
Humidity: 93%   Direction: 160°SSE
Pressure: 29.74"   Gusts: NA
Location:  47.45°N, 79.64°W
Report Text: CYXR 250500Z AUTO 16006KT 9SM SCT110 06/05 A2974 RMK SLP078
Loading
Personal Weather Stations






























Interactive Weather Map
Tropical Storm Tracking
New forecast layout! Learn more

10-Day Weather Forecast

Advertisements
Track Severe Weather on mobile